Terminal Aerodrome Forecast
Issued by NWS

Current Version | Previous Version | Text Only | Print | Product List | Glossary On
Versions: 1 2 3 4 5 6 7 8 9 10 11 12 13
000
FTUS42 KGSP 230354 AAA
TAFGMU
TAF AMD
KGMU 230354Z 2304/2324 09006KT P6SM -RA OVC009
     FM230500 09008KT 6SM -RA BR OVC008
      TEMPO 2307/2310 4SM -SHRA BR SCT004 OVC008
     FM231000 10009KT 4SM -SHRA BR SCT004 OVC007
     FM231400 14010KT 3SM SHRA BR OVC004
     FM231600 15011KT 3SM SHRA BR OVC008 PROB30 2316/2322 2SM TSRA
      BR OVC003CB=

USA.gov is the U.S. government's official web portal to all federal, state and local government web resources and services.